Time;durP1;ratioP1;P1;durP2;ratioP2;P2;SDS_P1;SDS_P2;PMS_P1;PMS_P2;Temp;Humidity;BMP_temperature;BMP_pressure;BME280_temperature;BME280_humidity;BME280_pressure;Samples;Min_cycle;Max_cycle;Signal;HPM_P1;HPM_P2
2023/09/11 00:00:15;;;;;;;;;23.33;21.67;;;;;28.02;49.18;100911.06;5016769;28;45331;-72
2023/09/11 00:02:40;;;;;;;;;21.33;21.33;;;;;28.05;49.31;100915.22;5016514;28;45205;-72
2023/09/11 00:05:06;;;;;;;;;18.00;17.67;;;;;28.12;49.34;100921.31;5016436;28;47177;-72
2023/09/11 00:07:31;;;;;;;;;23.00;21.00;;;;;28.09;49.33;100924.56;5016488;28;46367;-71
2023/09/11 00:09:57;;;;;;;;;21.33;20.67;;;;;28.00;49.31;100910.50;5015495;28;60997;-71
2023/09/11 00:12:22;;;;;;;;;22.00;22.00;;;;;28.05;49.26;100932.44;5035740;28;45432;-72
2023/09/11 00:14:47;;;;;;;;;17.33;17.00;;;;;27.97;49.54;100921.13;5036436;28;45292;-71
2023/09/11 00:17:13;;;;;;;;;25.67;23.00;;;;;27.63;50.21;100879.41;5036356;28;45524;-71
2023/09/11 00:19:38;;;;;;;;;21.67;21.33;;;;;27.63;50.18;100893.91;5032516;28;45276;-72
2023/09/11 00:22:03;;;;;;;;;23.33;21.67;;;;;27.70;50.44;100913.69;5039573;28;45259;-72
2023/09/11 00:24:29;;;;;;;;;19.67;18.00;;;;;27.68;50.36;100915.84;5040004;28;45494;-71
2023/09/11 00:26:55;;;;;;;;;21.00;19.67;;;;;27.71;50.69;100914.50;5039711;28;46303;-70
2023/09/11 00:29:20;;;;;;;;;21.67;21.67;;;;;27.43;51.19;100878.06;5039706;28;45262;-69
2023/09/11 00:31:46;;;;;;;;;23.67;20.33;;;;;27.53;51.09;100900.03;5039636;28;46161;-72
2023/09/11 00:34:12;;;;;;;;;20.33;19.33;;;;;27.64;50.90;100922.06;5039441;28;45249;-72
2023/09/11 00:36:37;;;;;;;;;21.67;21.67;;;;;27.55;51.37;100911.53;5039400;28;45366;-71
2023/09/11 00:39:03;;;;;;;;;17.67;15.00;;;;;27.52;50.95;100912.03;5039191;28;62069;-71
2023/09/11 00:41:28;;;;;;;;;20.00;18.67;;;;;27.49;50.91;100907.09;5026029;28;45258;-70
2023/09/11 00:43:53;;;;;;;;;22.67;18.67;;;;;27.51;51.27;100915.84;5019604;28;45408;-71
2023/09/11 00:46:19;;;;;;;;;19.67;18.00;;;;;27.46;51.33;100910.34;5019499;28;46486;-70
2023/09/11 00:48:44;;;;;;;;;21.33;18.67;;;;;27.48;51.38;100916.38;5019379;28;48585;-71
2023/09/11 00:51:10;;;;;;;;;20.00;18.00;;;;;27.27;51.18;100903.50;5019377;28;45496;-71
2023/09/11 00:53:35;;;;;;;;;21.00;18.67;;;;;27.36;51.18;100910.16;5019481;28;45440;-71
2023/09/11 00:56:01;;;;;;;;;19.33;19.33;;;;;27.22;51.12;100895.22;5019290;28;46445;-71
2023/09/11 00:58:26;;;;;;;;;21.33;19.67;;;;;27.24;51.33;100890.34;5019442;28;45170;-72
2023/09/11 01:00:53;;;;;;;;;17.67;17.67;;;;;27.21;50.67;100901.75;5017997;28;45204;-71
2023/09/11 01:03:18;;;;;;;;;13.67;12.33;;;;;27.21;50.37;100896.28;5030107;28;45580;-72
2023/09/11 01:05:44;;;;;;;;;15.33;14.33;;;;;27.21;49.93;100909.94;5038740;28;46402;-71
2023/09/11 01:08:10;;;;;;;;;21.00;19.33;;;;;27.22;50.05;100897.94;5039060;28;45478;-72
2023/09/11 01:10:35;;;;;;;;;20.33;17.33;;;;;27.10;49.90;100898.06;5039024;28;45421;-72
2023/09/11 01:13:02;;;;;;;;;17.67;17.00;;;;;27.12;50.18;100901.34;5039141;28;45206;-71
2023/09/11 01:15:35;;;;;;;;;19.67;17.33;;;;;27.15;50.32;100897.31;5038598;28;46721;-70
2023/09/11 01:18:22;;;;;;;;;14.67;14.67;;;;;27.12;50.21;100908.72;5038741;28;45441;-71
2023/09/11 01:21:00;;;;;;;;;19.00;19.00;;;;;27.11;50.20;100898.88;5038741;28;45319;-71
2023/09/11 01:23:58;;;;;;;;;18.00;15.00;;;;;27.13;50.07;100896.72;5021294;28;45544;-71
2023/09/11 01:26:37;;;;;;;;;16.33;14.00;;;;;27.08;50.15;100896.66;5038411;28;45889;-71
2023/09/11 01:29:18;;;;;;;;;15.67;15.67;;;;;27.01;49.86;100891.34;5038308;28;54138;-69
2023/09/11 01:31:44;;;;;;;;;21.00;20.33;;;;;26.98;49.89;100894.53;5020552;28;45567;-71
2023/09/11 01:34:10;;;;;;;;;15.00;15.00;;;;;26.84;49.33;100877.72;5019417;28;45499;-72
2023/09/11 01:36:35;;;;;;;;;17.00;16.00;;;;;26.92;50.03;100901.84;5018457;28;47389;-70
2023/09/11 01:39:01;;;;;;;;;14.00;12.67;;;;;26.81;50.62;100900.00;5018784;28;45340;-69
2023/09/11 01:41:41;;;;;;;;;21.67;18.67;;;;;26.71;50.42;100901.75;5018897;28;45538;-71
2023/09/11 01:44:16;;;;;;;;;12.67;12.67;;;;;26.76;50.56;100913.56;5032469;28;45985;-70
2023/09/11 01:46:44;;;;;;;;;19.67;19.33;;;;;26.72;50.93;100912.41;5038321;28;45566;-71
2023/09/11 01:49:10;;;;;;;;;20.00;19.00;;;;;26.66;50.75;100902.50;5037978;28;45505;-71
2023/09/11 01:51:38;;;;;;;;;17.67;17.67;;;;;26.59;50.98;100899.91;5036769;28;45520;-70
2023/09/11 01:54:05;;;;;;;;;18.67;17.33;;;;;26.71;50.94;100910.75;5038452;28;45392;-70
2023/09/11 01:56:30;;;;;;;;;20.33;20.00;;;;;26.72;51.18;100912.41;5037969;28;46596;-69
2023/09/11 01:58:56;;;;;;;;;21.33;16.00;;;;;26.64;50.75;100907.38;5020270;28;45435;-70
2023/09/11 02:01:22;;;;;;;;;16.67;16.00;;;;;26.65;51.12;100915.31;5038289;28;45345;-72
2023/09/11 02:03:47;;;;;;;;;18.67;15.67;;;;;26.55;51.25;100909.66;5022894;28;45404;-70
2023/09/11 02:06:12;;;;;;;;;21.33;19.00;;;;;26.52;51.27;100917.50;5017462;28;58397;-70
2023/09/11 02:08:38;;;;;;;;;16.67;15.67;;;;;26.47;51.34;100914.69;5017734;28;55391;-71
2023/09/11 02:11:03;;;;;;;;;19.67;18.33;;;;;26.16;51.43;100873.19;5018127;28;45327;-70
2023/09/11 02:13:28;;;;;;;;;19.00;16.33;;;;;26.36;51.30;100903.59;5018409;28;45282;-70
2023/09/11 02:15:53;;;;;;;;;17.00;15.33;;;;;26.43;51.38;100916.22;5017871;28;46664;-70
2023/09/11 02:18:19;;;;;;;;;19.67;17.33;;;;;25.97;51.60;100847.22;5017298;28;62235;-72
2023/09/11 02:20:47;;;;;;;;;17.33;16.00;;;;;26.04;51.16;100866.97;5017491;28;51181;-70
2023/09/11 02:23:13;;;;;;;;;17.33;16.33;;;;;26.26;51.63;100914.28;5018416;28;45469;-72
2023/09/11 02:25:38;;;;;;;;;18.33;18.00;;;;;25.93;51.51;100865.13;5017576;28;45889;-70
2023/09/11 02:28:04;;;;;;;;;18.67;17.67;;;;;26.14;51.69;100899.03;5017622;28;45172;-70
2023/09/11 02:30:29;;;;;;;;;15.50;15.50;;;;;26.17;51.70;100913.00;5017900;28;45272;-71
2023/09/11 02:32:55;;;;;;;;;22.00;20.33;;;;;26.06;52.03;100903.81;5025613;28;45182;-70
2023/09/11 02:35:20;;;;;;;;;20.00;18.00;;;;;26.05;52.00;100913.06;5036607;28;46432;-71
2023/09/11 02:37:45;;;;;;;;;17.67;17.67;;;;;26.03;51.56;100900.75;5037084;28;58782;-71
2023/09/11 02:40:11;;;;;;;;;23.67;19.33;;;;;26.01;51.85;100911.03;5018900;28;61659;-70
2023/09/11 02:42:36;;;;;;;;;19.67;17.00;;;;;25.99;51.52;100907.72;5037709;28;45407;-70
2023/09/11 02:45:02;;;;;;;;;20.33;17.67;;;;;25.68;51.52;100863.53;5036926;28;46560;-70
2023/09/11 02:47:27;;;;;;;;;18.67;17.00;;;;;25.96;51.38;100917.22;5037680;28;45515;-71
2023/09/11 02:49:53;;;;;;;;;19.00;18.67;;;;;25.92;51.48;100904.31;5037450;28;45503;-70
2023/09/11 02:52:18;;;;;;;;;19.00;17.33;;;;;25.98;51.31;100897.91;5037810;28;45366;-70
2023/09/11 02:54:43;;;;;;;;;17.67;16.67;;;;;25.99;51.47;100915.91;5037288;28;46546;-70
2023/09/11 02:57:09;;;;;;;;;20.00;20.00;;;;;25.81;51.51;100877.94;5037174;28;57913;-71
2023/09/11 02:59:34;;;;;;;;;19.00;16.67;;;;;25.80;51.38;100879.00;5036874;28;58303;-70
2023/09/11 03:02:00;;;;;;;;;18.33;16.67;;;;;25.91;51.42;100899.94;5037510;28;45305;-72
2023/09/11 03:04:25;;;;;;;;;17.67;16.00;;;;;26.02;51.31;100907.25;5017247;28;46650;-70
2023/09/11 03:06:50;;;;;;;;;18.00;13.00;;;;;25.99;51.30;100907.72;5017444;28;45506;-71
2023/09/11 03:09:16;;;;;;;;;20.33;18.00;;;;;25.87;51.04;100877.81;5015741;28;47818;-72
2023/09/11 03:11:41;;;;;;;;;19.33;16.33;;;;;25.94;51.18;100894.00;5017369;28;45475;-69
2023/09/11 03:14:11;;;;;;;;;15.67;15.33;;;;;25.91;51.04;100894.50;5017134;28;46371;-71
2023/09/11 03:16:36;;;;;;;;;19.67;16.33;;;;;25.87;50.87;100860.66;5017181;28;45341;-71
2023/09/11 03:19:01;;;;;;;;;14.33;13.67;;;;;25.92;50.88;100879.81;5015571;28;51962;-70
2023/09/11 03:21:27;;;;;;;;;19.67;15.00;;;;;25.87;50.60;100871.53;5017026;28;45233;-70
2023/09/11 03:23:52;;;;;;;;;18.67;15.67;;;;;25.79;50.99;100870.00;5016904;28;45729;-71
2023/09/11 03:26:17;;;;;;;;;16.33;14.67;;;;;25.65;50.88;100844.09;5017098;28;45473;-71
2023/09/11 03:28:49;;;;;;;;;14.00;14.00;;;;;25.74;50.84;100876.19;5017314;28;45738;-71
2023/09/11 03:31:15;;;;;;;;;17.33;16.00;;;;;25.55;51.35;100850.16;5017355;28;45526;-72
2023/09/11 03:33:40;;;;;;;;;20.33;18.33;;;;;25.57;51.48;100849.91;5032438;28;47021;-71
2023/09/11 03:36:06;;;;;;;;;19.33;17.67;;;;;25.57;51.54;100867.06;5036568;28;45392;-70
2023/09/11 03:38:31;;;;;;;;;19.00;16.67;;;;;25.48;51.54;100846.75;5036998;28;45230;-71
2023/09/11 03:40:57;;;;;;;;;21.50;19.00;;;;;25.58;51.78;100860.56;5037149;28;45202;-70
2023/09/11 03:43:23;;;;;;;;;17.67;17.00;;;;;25.46;51.83;100838.81;5018701;28;46401;-70
2023/09/11 03:45:48;;;;;;;;;18.00;17.33;;;;;25.56;51.59;100842.81;5036665;28;45510;-71
2023/09/11 03:48:14;;;;;;;;;14.33;14.33;;;;;25.30;51.37;100795.19;5018952;28;45421;-70
2023/09/11 03:50:39;;;;;;;;;18.33;18.00;;;;;25.60;51.46;100833.91;5036317;28;45510;-70
2023/09/11 03:53:04;;;;;;;;;19.00;18.00;;;;;25.66;51.28;100843.03;5036165;28;46453;-70
2023/09/11 03:55:29;;;;;;;;;18.67;17.33;;;;;25.36;51.12;100788.75;5036875;28;58904;-70
2023/09/11 03:57:55;;;;;;;;;18.67;18.00;;;;;25.63;51.13;100844.34;5022388;28;45348;-69
2023/09/11 04:00:20;;;;;;;;;22.00;20.00;;;;;25.53;50.80;100822.34;5040095;28;45300;-70
2023/09/11 04:02:46;;;;;;;;;18.67;15.67;;;;;25.62;50.95;100839.13;5018508;28;48342;-70
2023/09/11 04:05:11;;;;;;;;;17.00;17.00;;;;;25.60;50.60;100833.91;5019805;28;45293;-70
2023/09/11 04:07:36;;;;;;;;;15.00;13.67;;;;;25.53;50.69;100835.13;5019182;28;61206;-71
2023/09/11 04:10:02;;;;;;;;;17.00;16.33;;;;;25.52;50.30;100847.91;5019702;28;47222;-70
2023/09/11 04:12:27;;;;;;;;;14.33;12.67;;;;;25.18;50.93;100803.34;5019794;28;46574;-70
2023/09/11 04:14:52;;;;;;;;;15.67;14.00;;;;;25.44;50.62;100848.28;5019308;28;53799;-69
2023/09/11 04:17:17;;;;;;;;;16.33;16.00;;;;;25.46;50.58;100848.88;5019860;28;45287;-69
2023/09/11 04:19:43;;;;;;;;;15.00;14.00;;;;;25.44;50.11;100837.41;5019663;28;45317;-70
2023/09/11 04:22:10;;;;;;;;;12.67;12.67;;;;;25.29;50.24;100820.75;5019251;28;58944;-71
2023/09/11 04:24:35;;;;;;;;;14.33;14.33;;;;;25.27;50.59;100817.44;5019991;28;45361;-71
2023/09/11 04:27:01;;;;;;;;;22.33;19.00;;;;;25.22;50.80;100820.84;5019699;28;45210;-70
2023/09/11 04:29:28;;;;;;;;;15.00;12.67;;;;;25.17;51.08;100821.56;5019870;28;45246;-71
2023/09/11 04:31:54;;;;;;;;;16.33;15.00;;;;;25.20;51.00;100825.69;5019542;28;46375;-71
2023/09/11 04:34:19;;;;;;;;;14.33;13.33;;;;;25.15;50.61;100809.28;5018500;28;45418;-71
2023/09/11 04:36:45;;;;;;;;;14.33;13.33;;;;;25.10;50.79;100807.28;5019747;28;45455;-72
2023/09/11 04:39:12;;;;;;;;;15.00;15.00;;;;;25.16;50.93;100821.81;5020013;28;46428;-71
2023/09/11 04:41:37;;;;;;;;;17.00;16.00;;;;;24.94;51.25;100794.34;5019372;28;46563;-71
2023/09/11 04:44:03;;;;;;;;;15.00;15.00;;;;;25.03;51.15;100801.16;5019309;28;45541;-70
2023/09/11 04:46:28;;;;;;;;;10.33;10.33;;;;;25.01;51.36;100825.00;5019440;28;45516;-70
2023/09/11 04:48:55;;;;;;;;;14.67;13.33;;;;;24.71;51.77;100802.53;5019486;28;45515;-69
2023/09/11 04:51:20;;;;;;;;;15.67;13.67;;;;;24.83;51.88;100822.41;5019012;28;47680;-72
2023/09/11 04:53:45;;;;;;;;;14.00;14.00;;;;;24.75;52.00;100814.56;5019415;28;45298;-70
2023/09/11 04:56:11;;;;;;;;;14.67;13.00;;;;;24.67;52.12;100812.22;5018047;28;45313;-71
2023/09/11 04:58:36;;;;;;;;;10.00;10.00;;;;;24.70;52.34;100823.44;5019469;28;45490;-70
2023/09/11 05:01:03;;;;;;;;;11.33;11.33;;;;;24.50;52.56;100799.31;5018815;28;46743;-71
2023/09/11 05:03:28;;;;;;;;;16.00;15.00;;;;;24.34;52.44;100772.00;5019336;28;45438;-71
2023/09/11 05:05:53;;;;;;;;;18.33;16.33;;;;;24.60;52.58;100819.63;5018267;28;45356;-71
2023/09/11 05:08:19;;;;;;;;;11.00;11.00;;;;;24.31;52.49;100761.59;5019055;28;45311;-71
2023/09/11 05:10:44;;;;;;;;;15.67;14.67;;;;;24.72;52.68;100824.03;5017408;28;46687;-71
2023/09/11 05:13:11;;;;;;;;;14.00;14.00;;;;;24.74;52.43;100821.91;5019027;28;45387;-71
2023/09/11 05:15:36;;;;;;;;;14.00;12.00;;;;;24.65;52.34;100804.31;5019349;28;45366;-71
2023/09/11 05:18:02;;;;;;;;;13.67;13.67;;;;;24.72;52.45;100823.22;5001333;28;45483;-71
2023/09/11 05:20:27;;;;;;;;;15.33;15.33;;;;;24.73;52.46;100825.69;5018494;28;47272;-70
2023/09/11 05:22:53;;;;;;;;;13.33;13.00;;;;;24.68;52.61;100814.69;5018823;28;45317;-69
2023/09/11 05:25:19;;;;;;;;;15.33;14.33;;;;;24.76;52.33;100827.94;5018107;28;56624;-70
2023/09/11 05:27:45;;;;;;;;;12.00;12.00;;;;;24.70;52.75;100837.03;5019005;28;45328;-69
2023/09/11 05:30:11;;;;;;;;;14.33;12.67;;;;;24.38;52.71;100775.88;5018356;28;46056;-69
2023/09/11 05:32:36;;;;;;;;;17.00;15.33;;;;;24.39;52.64;100778.38;5018353;28;45299;-69
2023/09/11 05:35:01;;;;;;;;;17.00;15.33;;;;;24.53;52.38;100793.41;5017683;28;53716;-69
2023/09/11 05:37:27;;;;;;;;;12.67;12.33;;;;;24.80;52.63;100836.44;5000995;28;45559;-69
2023/09/11 05:39:52;;;;;;;;;16.00;16.00;;;;;24.79;52.73;100835.63;5018415;28;45365;-72
2023/09/11 05:42:17;;;;;;;;;16.00;14.67;;;;;24.74;52.78;100843.66;5018059;28;58896;-72
2023/09/11 05:44:43;;;;;;;;;13.67;11.67;;;;;24.78;52.87;100833.13;5016868;28;45850;-72
2023/09/11 05:47:09;;;;;;;;;15.33;15.33;;;;;24.43;52.71;100765.16;5032806;28;45363;-71
2023/09/11 05:49:34;;;;;;;;;18.33;16.33;;;;;24.85;52.76;100828.44;5037436;28;45808;-72
2023/09/11 05:51:59;;;;;;;;;13.33;12.00;;;;;24.61;52.25;100781.34;5037964;28;45419;-70
2023/09/11 05:54:25;;;;;;;;;16.67;15.67;;;;;24.78;52.16;100814.09;5036692;28;45597;-70
2023/09/11 05:56:52;;;;;;;;;17.33;14.67;;;;;24.87;52.56;100831.75;5011493;28;45388;-72
2023/09/11 05:59:19;;;;;;;;;18.00;18.00;;;;;24.77;52.52;100823.31;5019672;28;47978;-72
2023/09/11 06:01:48;;;;;;;;;16.67;14.33;;;;;24.82;52.43;100831.59;5033460;28;45487;-73
2023/09/11 06:04:13;;;;;;;;;16.00;14.67;;;;;24.83;52.11;100833.28;5017824;28;45360;-70
2023/09/11 06:06:38;;;;;;;;;13.00;13.00;;;;;24.88;52.02;100836.13;5018112;28;45406;-71
2023/09/11 06:09:08;;;;;;;;;17.33;15.00;;;;;24.43;52.38;100779.56;5017589;28;45560;-72
2023/09/11 06:11:33;;;;;;;;;15.67;12.67;;;;;24.78;52.42;100841.28;5020371;28;45479;-70
2023/09/11 06:13:59;;;;;;;;;19.67;15.67;;;;;24.90;52.14;100847.56;5017182;28;45394;-71
2023/09/11 06:16:24;;;;;;;;;18.00;17.00;;;;;24.54;52.12;100792.34;5016691;28;52509;-72
2023/09/11 06:18:50;;;;;;;;;14.33;12.67;;;;;24.86;52.17;100843.69;5013969;28;46439;-81
2023/09/11 06:21:15;;;;;;;;;14.00;14.00;;;;;24.77;51.84;100823.31;5031794;28;45217;-71
2023/09/11 06:23:40;;;;;;;;;13.67;12.33;;;;;24.97;52.02;100845.56;5037785;28;45392;-70
2023/09/11 06:26:06;;;;;;;;;15.33;14.00;;;;;24.95;51.93;100835.97;5035291;28;45516;-73
2023/09/11 06:28:31;;;;;;;;;18.33;17.00;;;;;24.99;51.40;100851.63;5034739;28;45556;-72
2023/09/11 06:30:57;;;;;;;;;16.00;13.00;;;;;25.09;51.86;100849.16;5037106;28;45290;-73
2023/09/11 06:33:22;;;;;;;;;14.33;14.00;;;;;25.36;51.72;100859.53;5015649;28;45290;-73
2023/09/11 06:35:47;;;;;;;;;17.00;16.00;;;;;25.72;50.55;100848.38;4999180;28;45592;-73
2023/09/11 06:38:13;;;;;;;;;16.67;16.67;;;;;26.01;49.63;100840.19;5020377;28;46865;-72
2023/09/11 06:40:38;;;;;;;;;18.33;18.00;;;;;26.38;48.81;100832.47;5017180;28;45305;-73
2023/09/11 06:43:04;;;;;;;;;16.00;15.00;;;;;26.72;48.16;100848.84;5017469;28;45380;-73
2023/09/11 06:45:31;;;;;;;;;18.00;17.67;;;;;26.90;47.71;100833.03;5016707;28;45496;-73
2023/09/11 06:47:58;;;;;;;;;15.67;15.00;;;;;27.17;46.78;100840.56;5017673;28;45794;-71
2023/09/11 06:50:24;;;;;;;;;28.67;22.00;;;;;27.46;46.05;100842.06;5016375;28;45464;-73
2023/09/11 06:52:49;;;;;;;;;15.67;14.33;;;;;27.64;45.03;100837.41;5017241;28;45460;-72
2023/09/11 06:55:14;;;;;;;;;14.00;14.00;;;;;27.82;44.67;100831.56;5016326;28;45301;-72
2023/09/11 06:57:53;;;;;;;;;13.67;13.33;;;;;28.01;44.50;100841.09;5036942;28;45603;-70
2023/09/11 07:00:18;;;;;;;;;18.67;17.00;;;;;28.32;43.92;100838.69;5033592;28;45380;-70
2023/09/11 07:02:47;;;;;;;;;17.67;16.33;;;;;28.69;43.30;100839.56;5022265;28;45416;-71
2023/09/11 07:05:12;;;;;;;;;14.33;14.33;;;;;28.88;41.92;100836.47;5029117;28;45623;-73
2023/09/11 07:07:38;;;;;;;;;14.67;13.00;;;;;29.12;41.65;100829.50;5015789;28;46462;-72
2023/09/11 07:10:04;;;;;;;;;13.67;10.33;;;;;29.44;40.94;100847.75;5028970;28;45465;-72
2023/09/11 07:12:29;;;;;;;;;18.33;15.00;;;;;29.72;40.55;100850.09;5017946;28;45226;-73
2023/09/11 07:14:55;;;;;;;;;15.00;15.00;;;;;30.01;40.25;100850.44;5017353;28;45184;-75
2023/09/11 07:17:21;;;;;;;;;16.33;16.33;;;;;30.21;39.46;100845.03;5026752;28;46814;-73
2023/09/11 07:19:47;;;;;;;;;17.00;14.00;;;;;30.22;38.67;100854.06;5022436;28;45510;-71
2023/09/11 07:22:13;;;;;;;;;14.33;14.33;;;;;29.85;39.81;100808.47;5057177;28;45494;-72
2023/09/11 07:24:38;;;;;;;;;19.00;17.33;;;;;30.29;39.19;100840.94;5046424;28;45501;-72
2023/09/11 07:27:04;;;;;;;;;15.00;14.00;;;;;30.34;39.01;100849.16;5030846;28;45565;-73
2023/09/11 07:29:30;;;;;;;;;14.67;13.00;;;;;30.16;38.68;100833.22;5016657;28;45337;-71
2023/09/11 07:31:55;;;;;;;;;12.33;10.33;;;;;29.96;38.91;100801.91;5016567;28;45303;-73
2023/09/11 07:34:21;;;;;;;;;14.00;12.67;;;;;30.42;38.20;100840.38;5016473;28;45409;-71
2023/09/11 07:36:46;;;;;;;;;14.33;14.33;;;;;30.42;38.47;100848.59;5016404;28;45434;-72
2023/09/11 07:39:12;;;;;;;;;12.33;12.00;;;;;30.35;38.05;100833.53;5016663;28;45313;-74
2023/09/11 07:41:37;;;;;;;;;16.00;13.33;;;;;30.33;38.43;100846.69;5016427;28;45348;-73
2023/09/11 07:44:02;;;;;;;;;14.00;11.33;;;;;29.98;38.29;100842.75;5017391;28;45635;-72
2023/09/11 07:46:30;;;;;;;;;11.67;11.67;;;;;29.95;39.03;100851.53;5015926;28;46676;-73
2023/09/11 07:48:56;;;;;;;;;15.67;15.00;;;;;30.20;39.03;100856.25;5030399;28;45269;-72
2023/09/11 07:51:21;;;;;;;;;12.67;12.33;;;;;30.51;38.36;100835.19;5035699;28;45554;-73
2023/09/11 07:53:46;;;;;;;;;15.00;14.67;;;;;30.96;38.22;100863.72;5036114;28;45515;-74
2023/09/11 07:56:13;;;;;;;;;15.33;13.00;;;;;30.92;37.69;100866.22;5033700;28;45543;-74
2023/09/11 07:58:38;;;;;;;;;17.00;15.00;;;;;30.62;38.00;100867.03;5033825;28;45456;-73
2023/09/11 08:01:04;;;;;;;;;14.33;13.67;;;;;30.42;38.48;100862.31;5038187;28;45458;-73
2023/09/11 08:03:34;;;;;;;;;13.00;13.00;;;;;30.06;38.91;100822.25;5045439;28;45504;-75
2023/09/11 08:06:05;;;;;;;;;14.00;14.00;;;;;30.24;39.36;100876.59;5051359;28;46175;-74
2023/09/11 08:08:31;;;;;;;;;15.00;15.00;;;;;30.10;39.28;100879.00;5037548;28;45420;-75
2023/09/11 08:10:56;;;;;;;;;10.67;10.33;;;;;29.97;39.78;100866.59;5023046;28;45241;-77
2023/09/11 08:13:21;;;;;;;;;19.00;16.00;;;;;29.78;39.98;100872.84;5037165;28;45412;-74
2023/09/11 08:15:47;;;;;;;;;16.67;15.67;;;;;29.68;39.79;100862.69;5024569;28;58219;-73
2023/09/11 08:18:12;;;;;;;;;14.00;14.00;;;;;29.53;40.25;100879.88;5041005;28;45453;-72
2023/09/11 08:20:43;;;;;;;;;17.67;14.67;;;;;29.46;40.92;100870.25;5016069;28;45506;-73
2023/09/11 08:23:09;;;;;;;;;20.33;16.00;;;;;29.36;40.61;100874.53;5037714;28;45170;-76
2023/09/11 08:25:34;;;;;;;;;17.33;16.00;;;;;28.92;41.12;100837.56;5055571;28;45625;-73
2023/09/11 08:27:59;;;;;;;;;16.00;15.00;;;;;29.04;41.11;100873.81;5055046;28;58754;-75
2023/09/11 08:30:25;;;;;;;;;19.33;13.67;;;;;28.72;41.37;100852.72;5026652;28;45598;-72
2023/09/11 08:32:51;;;;;;;;;17.00;14.33;;;;;28.74;41.39;100861.50;5008574;28;45350;-72
2023/09/11 08:35:16;;;;;;;;;15.67;14.67;;;;;28.57;41.59;100846.31;5015546;28;45677;-72
2023/09/11 08:37:42;;;;;;;;;17.00;13.67;;;;;28.74;41.94;100872.44;5036694;28;45368;-73
2023/09/11 08:40:07;;;;;;;;;18.00;15.33;;;;;28.75;42.24;100873.25;5053796;28;45387;-72
2023/09/11 08:42:33;;;;;;;;;14.33;14.00;;;;;28.73;42.17;100867.22;5035991;28;45489;-73
2023/09/11 08:44:58;;;;;;;;;16.00;12.67;;;;;28.73;42.20;100875.44;5058748;28;45809;-74
2023/09/11 08:47:29;;;;;;;;;13.67;13.33;;;;;28.74;41.94;100872.44;5040838;28;46691;-73
2023/09/11 08:50:02;;;;;;;;;12.67;12.67;;;;;28.81;41.61;100871.38;5042651;28;45418;-74
2023/09/11 08:52:29;;;;;;;;;15.00;14.67;;;;;28.70;42.40;100876.78;5037119;28;45560;-72
2023/09/11 08:54:59;;;;;;;;;15.00;13.00;;;;;28.36;42.43;100828.88;5058423;28;46225;-73
2023/09/11 08:57:28;;;;;;;;;15.33;13.67;;;;;28.59;42.08;100861.38;5058633;28;45451;-73
2023/09/11 08:59:58;;;;;;;;;16.00;15.00;;;;;28.63;42.01;100858.94;5059007;28;45585;-73
2023/09/11 09:02:25;;;;;;;;;15.33;15.33;;;;;28.95;41.90;100881.66;5038488;28;45581;-71
2023/09/11 09:04:51;;;;;;;;;16.33;14.33;;;;;29.09;41.34;100876.56;5023859;28;46716;-73
2023/09/11 09:07:17;;;;;;;;;16.33;13.33;;;;;29.19;41.55;100882.09;5024739;28;45569;-73
2023/09/11 09:09:43;;;;;;;;;13.00;11.33;;;;;29.37;41.03;100895.34;5014069;28;45494;-72
2023/09/11 09:12:09;;;;;;;;;15.33;13.00;;;;;29.37;40.83;100878.91;5020717;28;45523;-73
2023/09/11 09:14:38;;;;;;;;;17.33;17.33;;;;;29.52;40.70;100888.34;5039847;28;47535;-73
2023/09/11 09:17:03;;;;;;;;;17.00;14.33;;;;;29.68;40.26;100892.81;5022020;28;45461;-73
2023/09/11 09:19:29;;;;;;;;;13.00;13.00;;;;;29.80;40.08;100870.66;5055183;28;47624;-74
2023/09/11 09:22:04;;;;;;;;;12.33;11.33;;;;;30.18;39.78;100877.66;5058237;28;49058;-73
2023/09/11 09:24:30;;;;;;;;;15.33;14.33;;;;;30.16;39.25;100864.22;5054726;28;46843;-73
2023/09/11 09:27:01;;;;;;;;;14.50;14.50;;;;;30.49;38.85;100868.38;5036940;28;45755;-74
2023/09/11 09:29:32;;;;;;;;;15.00;13.67;;;;;30.74;38.21;100895.03;5055771;28;45284;-74
2023/09/11 09:32:02;;;;;;;;;12.00;12.00;;;;;30.75;38.44;100904.91;5058487;28;45317;-74
2023/09/11 09:34:28;;;;;;;;;12.00;12.00;;;;;30.61;38.38;100900.22;5057163;28;45816;-74
2023/09/11 09:36:54;;;;;;;;;15.33;12.00;;;;;31.08;37.74;100968.63;5057857;28;45438;-74
2023/09/11 09:39:20;;;;;;;;;17.00;14.00;;;;;31.10;38.31;100956.25;5054669;28;45290;-74
2023/09/11 09:42:01;;;;;;;;;15.00;15.00;;;;;31.04;37.78;100954.63;5054176;28;45290;-73
2023/09/11 09:44:36;;;;;;;;;18.33;16.67;;;;;30.84;38.14;100951.88;5037522;28;45953;-73
2023/09/11 09:47:13;;;;;;;;;12.67;12.67;;;;;30.25;38.61;100876.31;5008876;28;45401;-74
2023/09/11 09:49:57;;;;;;;;;15.33;14.33;;;;;30.63;39.30;100970.22;5034314;28;45412;-73
2023/09/11 09:52:29;;;;;;;;;12.67;12.00;;;;;30.45;40.26;100960.56;5020852;28;45362;-74
2023/09/11 09:55:02;;;;;;;;;17.00;14.33;;;;;30.32;40.69;100952.03;5037556;28;45827;-74
2023/09/11 09:57:28;;;;;;;;;15.00;15.00;;;;;30.31;40.73;100947.63;5033799;28;45400;-75
2023/09/11 09:59:58;;;;;;;;;17.67;15.00;;;;;30.37;40.73;100952.03;5036517;28;45470;-75
2023/09/11 10:02:29;;;;;;;;;15.33;13.33;;;;;30.40;40.79;100932.28;5009247;28;45569;-74
2023/09/11 10:04:56;;;;;;;;;17.67;17.33;;;;;30.69;40.31;100954.59;5024362;28;47179;-74
2023/09/11 10:07:39;;;;;;;;;14.67;13.33;;;;;30.57;40.54;100898.00;5019529;28;45552;-75
2023/09/11 10:10:25;;;;;;;;;14.00;12.67;;;;;31.03;40.00;100939.22;5017844;28;45351;-75
2023/09/11 10:12:52;;;;;;;;;14.67;14.67;;;;;31.08;39.58;100941.97;5037495;28;45394;-74
2023/09/11 10:15:18;;;;;;;;;13.33;12.00;;;;;31.08;39.53;100938.41;5029471;28;46429;-74
2023/09/11 10:17:44;;;;;;;;;13.00;12.00;;;;;31.12;39.23;100937.59;5010393;28;45718;-74
2023/09/11 10:20:10;;;;;;;;;11.33;11.33;;;;;31.10;39.19;100922.47;5058212;28;45458;-73
2023/09/11 10:22:35;;;;;;;;;13.67;13.67;;;;;31.12;39.12;100921.09;5025575;28;45476;-74
2023/09/11 10:25:00;;;;;;;;;12.67;11.67;;;;;31.18;38.94;100919.19;5042113;28;46347;-74
2023/09/11 10:27:27;;;;;;;;;13.00;13.00;;;;;31.05;39.51;100909.59;5003230;28;45594;-75
2023/09/11 10:30:03;;;;;;;;;15.33;13.67;;;;;30.79;39.53;100853.84;5036236;28;45368;-74
2023/09/11 10:32:37;;;;;;;;;14.00;12.67;;;;;31.15;39.21;100904.06;5035752;28;45642;-73
2023/09/11 10:35:05;;;;;;;;;13.00;11.33;;;;;31.21;39.45;100902.16;5040894;28;47053;-75
2023/09/11 10:37:31;;;;;;;;;13.67;13.67;;;;;31.25;39.04;100902.44;5019510;28;45483;-73
2023/09/11 10:39:59;;;;;;;;;11.67;11.67;;;;;31.10;39.16;100870.31;5053021;28;45464;-73
2023/09/11 10:42:25;;;;;;;;;13.00;13.00;;;;;31.29;38.70;100898.03;5048752;28;45479;-75
2023/09/11 10:44:53;;;;;;;;;15.00;14.67;;;;;31.23;39.07;100893.63;5029136;28;46871;-74
2023/09/11 10:47:19;;;;;;;;;14.67;14.00;;;;;31.29;39.17;100890.63;5016822;28;45277;-74
2023/09/11 10:49:48;;;;;;;;;16.67;13.67;;;;;31.38;38.95;100926.56;5048807;28;45453;-75
2023/09/11 10:52:15;;;;;;;;;13.33;13.33;;;;;31.08;39.05;100881.56;5057070;28;45305;-73
2023/09/11 10:54:40;;;;;;;;;13.67;13.67;;;;;31.34;38.74;100925.50;5056674;28;46489;-74
2023/09/11 10:57:06;;;;;;;;;13.00;12.00;;;;;31.27;38.91;100930.47;5056808;28;45368;-74
2023/09/11 10:59:32;;;;;;;;;14.33;14.33;;;;;31.31;39.00;100932.38;5040226;28;45760;-75
2023/09/11 11:01:58;;;;;;;;;12.67;10.00;;;;;31.27;38.79;100930.47;5019698;28;45499;-72
2023/09/11 11:04:24;;;;;;;;;13.33;11.67;;;;;31.23;38.53;100923.84;5049244;28;46739;-75
2023/09/11 11:06:53;;;;;;;;;14.00;14.00;;;;;31.17;38.62;100923.88;5050565;28;45376;-74